Time;durP1;ratioP1;P1;durP2;ratioP2;P2;SDS_P1;SDS_P2;PMS_P1;PMS_P2;Temp;Humidity;BMP_temperature;BMP_pressure;BME280_temperature;BME280_humidity;BME280_pressure;Samples;Min_cycle;Max_cycle;Signal;HPM_P1;HPM_P2
2021/10/25 00:01:29;;;;;;;5.43;4.50;;;9.00;99.90;;;;;;4998005;28;20464;-77
2021/10/25 00:03:56;;;;;;;6.57;4.90;;;8.80;99.90;;;;;;4995851;28;20449;-76
2021/10/25 00:06:22;;;;;;;6.23;4.77;;;8.90;99.90;;;;;;4976655;28;20471;-76
2021/10/25 00:08:47;;;;;;;8.10;5.17;;;9.10;99.90;;;;;;4991947;28;20448;-76
2021/10/25 00:11:13;;;;;;;8.07;6.43;;;9.10;99.90;;;;;;4994421;28;20221;-76
2021/10/25 00:13:40;;;;;;;6.10;5.50;;;9.10;99.90;;;;;;4996621;28;20668;-77
2021/10/25 00:16:06;;;;;;;5.03;4.40;;;9.00;99.90;;;;;;4993376;28;20459;-76
2021/10/25 00:18:33;;;;;;;7.17;5.40;;;9.00;99.90;;;;;;4994621;28;20994;-76
2021/10/25 00:20:59;;;;;;;7.40;5.37;;;9.10;99.90;;;;;;4995824;28;21832;-76
2021/10/25 00:23:24;;;;;;;6.40;4.77;;;9.20;99.90;;;;;;4996133;28;20451;-76
2021/10/25 00:25:50;;;;;;;8.43;4.97;;;9.10;99.90;;;;;;4992804;28;20198;-77
2021/10/25 00:28:16;;;;;;;6.20;5.10;;;9.00;99.90;;;;;;4981583;28;20205;-77
2021/10/25 00:30:41;;;;;;;6.80;5.40;;;8.80;99.90;;;;;;4984245;28;20582;-77
2021/10/25 00:33:07;;;;;;;6.40;5.03;;;8.70;99.90;;;;;;4977003;28;20833;-77
2021/10/25 00:35:33;;;;;;;6.30;5.30;;;8.70;99.90;;;;;;4993702;28;20196;-77
2021/10/25 00:37:59;;;;;;;6.70;6.00;;;8.70;99.90;;;;;;4997646;28;20939;-77
2021/10/25 00:40:24;;;;;;;7.87;5.80;;;8.60;99.90;;;;;;4997635;28;20209;-76
2021/10/25 00:42:50;;;;;;;7.43;6.10;;;8.60;99.90;;;;;;4993950;28;20280;-77
2021/10/25 00:45:16;;;;;;;8.60;6.70;;;8.70;99.90;;;;;;4995678;28;20247;-77
2021/10/25 00:47:41;;;;;;;9.03;6.10;;;9.00;99.90;;;;;;4996619;28;20188;-77
2021/10/25 00:50:08;;;;;;;6.90;6.20;;;9.10;99.90;;;;;;4995668;28;20253;-77
2021/10/25 00:52:36;;;;;;;7.67;6.40;;;8.90;99.90;;;;;;4997716;28;20544;-77
2021/10/25 00:55:03;;;;;;;7.10;6.20;;;8.80;99.90;;;;;;4993611;28;20479;-77
2021/10/25 00:57:29;;;;;;;8.63;6.13;;;8.90;99.90;;;;;;4992946;28;20468;-76
2021/10/25 00:59:55;;;;;;;7.30;6.60;;;9.00;99.90;;;;;;4998647;28;20464;-77
2021/10/25 01:02:20;;;;;;;7.27;6.40;;;8.80;99.90;;;;;;4978346;28;20570;-77
2021/10/25 01:04:46;;;;;;;10.83;6.70;;;8.70;99.90;;;;;;4995245;28;20197;-77
2021/10/25 01:07:12;;;;;;;9.27;6.17;;;8.70;99.90;;;;;;4995198;28;20276;-77
2021/10/25 01:09:39;;;;;;;9.70;6.87;;;8.60;99.90;;;;;;4995669;28;20221;-77
2021/10/25 01:12:05;;;;;;;9.97;5.93;;;8.80;99.90;;;;;;4998842;28;20972;-78
2021/10/25 01:14:31;;;;;;;7.17;6.10;;;9.00;99.90;;;;;;4994696;28;20563;-77
2021/10/25 01:16:57;;;;;;;7.10;6.20;;;8.90;99.90;;;;;;4995217;28;20483;-77
2021/10/25 01:19:22;;;;;;;6.83;5.90;;;8.50;99.90;;;;;;4995386;28;20197;-77
2021/10/25 01:21:49;;;;;;;9.67;6.00;;;8.50;99.90;;;;;;4997200;28;20607;-77
2021/10/25 01:24:14;;;;;;;10.23;6.00;;;8.40;99.90;;;;;;4996117;28;20192;-77
2021/10/25 01:26:40;;;;;;;8.13;6.13;;;8.60;99.90;;;;;;4994986;28;20443;-77
2021/10/25 01:29:06;;;;;;;9.70;6.67;;;8.70;99.90;;;;;;4996163;28;20267;-76
2021/10/25 01:31:32;;;;;;;6.03;5.33;;;8.70;99.90;;;;;;4995643;28;20244;-77
2021/10/25 01:33:58;;;;;;;9.37;6.20;;;8.70;99.90;;;;;;4991987;28;20459;-77
2021/10/25 01:36:23;;;;;;;6.80;5.90;;;8.70;99.90;;;;;;4996624;28;20185;-77
2021/10/25 01:38:50;;;;;;;7.20;5.93;;;8.80;99.90;;;;;;4984855;28;20452;-76
2021/10/25 01:41:17;;;;;;;5.83;5.20;;;9.00;99.90;;;;;;4992154;28;20320;-77
2021/10/25 01:43:42;;;;;;;7.93;6.10;;;9.00;99.90;;;;;;4997065;28;20484;-77
2021/10/25 01:46:09;;;;;;;8.80;6.20;;;8.90;99.90;;;;;;4997575;28;20470;-77
2021/10/25 01:48:35;;;;;;;7.90;6.17;;;8.70;99.90;;;;;;4993449;28;20570;-77
2021/10/25 01:51:01;;;;;;;14.73;5.97;;;8.70;99.90;;;;;;4996311;28;20468;-77
2021/10/25 01:53:28;;;;;;;7.53;6.10;;;8.90;99.90;;;;;;4977438;28;20462;-76
2021/10/25 01:56:03;;;;;;;7.00;5.67;;;8.90;99.90;;;;;;4992851;28;20477;-78
2021/10/25 01:58:30;;;;;;;7.13;4.97;;;8.80;99.90;;;;;;4992520;28;20471;-77
2021/10/25 02:00:55;;;;;;;7.77;5.90;;;8.60;99.90;;;;;;4991051;28;21298;-77
2021/10/25 02:03:21;;;;;;;7.67;6.30;;;8.40;99.90;;;;;;4994439;28;20436;-77
2021/10/25 02:05:47;;;;;;;6.90;6.20;;;8.60;99.90;;;;;;4990369;28;20268;-76
2021/10/25 02:08:13;;;;;;;8.20;5.57;;;8.40;99.90;;;;;;4990828;28;20204;-77
2021/10/25 02:10:39;;;;;;;7.07;5.47;;;8.20;99.90;;;;;;4993119;28;20259;-77
2021/10/25 02:13:05;;;;;;;7.77;4.97;;;8.40;99.90;;;;;;4994790;28;20454;-78
2021/10/25 02:15:31;;;;;;;7.83;5.70;;;8.60;99.90;;;;;;4993044;28;20436;-76
2021/10/25 02:17:57;;;;;;;8.10;5.10;;;8.70;99.90;;;;;;4996669;28;20252;-78
2021/10/25 02:20:23;;;;;;;7.60;5.07;;;8.80;99.90;;;;;;4992688;28;20472;-76
2021/10/25 02:22:49;;;;;;;7.20;4.83;;;8.80;99.90;;;;;;4994158;28;20197;-77
2021/10/25 02:25:14;;;;;;;8.20;5.97;;;8.80;99.90;;;;;;4990802;28;20598;-77
2021/10/25 02:27:40;;;;;;;6.70;5.67;;;8.80;99.90;;;;;;4993456;28;20428;-76
2021/10/25 02:30:06;;;;;;;9.27;6.10;;;8.40;99.90;;;;;;4990207;28;20209;-77
2021/10/25 02:32:32;;;;;;;5.93;5.33;;;8.50;99.90;;;;;;4991351;28;20200;-77
2021/10/25 02:34:59;;;;;;;9.47;5.43;;;8.30;99.90;;;;;;4978768;28;20440;-77
2021/10/25 02:37:24;;;;;;;5.87;5.00;;;8.20;99.90;;;;;;4979374;28;20216;-76
2021/10/25 02:39:50;;;;;;;6.90;5.27;;;7.90;99.90;;;;;;4994513;28;20478;-78
2021/10/25 02:42:16;;;;;;;5.17;4.63;;;7.70;99.90;;;;;;4992665;28;22627;-76
2021/10/25 02:44:43;;;;;;;5.90;4.63;;;7.90;99.90;;;;;;4994115;28;20173;-75
2021/10/25 02:47:12;;;;;;;6.10;4.37;;;7.70;99.90;;;;;;4992052;28;20442;-75
2021/10/25 02:49:38;;;;;;;5.17;4.30;;;7.70;99.90;;;;;;4995102;28;20475;-76
2021/10/25 02:52:04;;;;;;;9.20;4.77;;;7.60;99.90;;;;;;4994433;28;20447;-76
2021/10/25 02:54:31;;;;;;;5.00;4.20;;;7.50;99.90;;;;;;4994189;28;20243;-77
2021/10/25 02:56:57;;;;;;;6.57;5.17;;;7.70;99.90;;;;;;4977315;28;20481;-76
2021/10/25 02:59:22;;;;;;;5.17;4.27;;;7.60;99.90;;;;;;4995656;28;20444;-75
2021/10/25 03:01:48;;;;;;;3.83;3.47;;;7.50;99.90;;;;;;4993208;28;20220;-76
2021/10/25 03:04:14;;;;;;;4.10;3.70;;;7.10;99.90;;;;;;4995182;28;20243;-76
2021/10/25 03:06:39;;;;;;;5.30;4.10;;;6.70;99.90;;;;;;4990534;28;20695;-75
2021/10/25 03:09:07;;;;;;;4.77;4.00;;;6.70;99.90;;;;;;4991756;28;20449;-76
2021/10/25 03:11:33;;;;;;;4.60;3.87;;;6.90;99.90;;;;;;4992634;28;20213;-76
2021/10/25 03:13:59;;;;;;;4.43;3.97;;;7.30;99.90;;;;;;4994307;28;20431;-77
2021/10/25 03:16:25;;;;;;;4.37;3.97;;;7.30;99.90;;;;;;4993390;28;20826;-77
2021/10/25 03:18:51;;;;;;;5.03;3.87;;;7.30;99.90;;;;;;4990327;28;20816;-77
2021/10/25 03:21:19;;;;;;;6.40;4.50;;;7.40;99.90;;;;;;4994317;28;20198;-77
2021/10/25 03:23:47;;;;;;;5.60;4.80;;;7.20;99.90;;;;;;4992932;28;20444;-78
2021/10/25 03:26:13;;;;;;;5.40;4.47;;;7.60;99.90;;;;;;4992463;28;20788;-76
2021/10/25 03:28:38;;;;;;;3.90;3.33;;;7.70;99.90;;;;;;4994447;28;20593;-77
2021/10/25 03:31:05;;;;;;;5.10;4.60;;;7.60;99.90;;;;;;4991810;28;20474;-77
2021/10/25 03:33:33;;;;;;;5.37;4.50;;;7.50;99.90;;;;;;4992201;28;20900;-76
2021/10/25 03:36:01;;;;;;;4.67;4.23;;;7.50;99.90;;;;;;4993706;28;20447;-77
2021/10/25 03:38:28;;;;;;;5.90;4.00;;;7.70;99.90;;;;;;4994090;28;20479;-75
2021/10/25 03:40:55;;;;;;;4.87;4.10;;;7.40;99.90;;;;;;4996583;28;20460;-77
2021/10/25 03:43:22;;;;;;;4.93;3.77;;;7.70;99.90;;;;;;4997604;28;20456;-75
2021/10/25 03:48:25;;;;;;;5.00;4.50;;;8.00;99.90;;;;;;4995733;28;20458;-77
2021/10/25 03:50:51;;;;;;;5.30;4.37;;;8.00;99.90;;;;;;4993973;28;20209;-77
2021/10/25 03:56:15;;;;;;;5.67;4.50;;;7.50;99.90;;;;;;4995545;28;20482;-77
2021/10/25 04:30:30;;;;;;;6.10;5.50;;;7.70;99.90;;;;;;4998387;28;20554;-75
2021/10/25 04:32:55;;;;;;;5.43;4.90;;;7.70;99.90;;;;;;4993806;28;20449;-76
2021/10/25 04:35:21;;;;;;;7.47;5.53;;;7.60;99.90;;;;;;4992417;28;20448;-76
2021/10/25 04:37:46;;;;;;;6.40;4.93;;;7.60;99.90;;;;;;4996077;28;20213;-78
2021/10/25 04:40:13;;;;;;;9.40;4.60;;;7.60;99.90;;;;;;4978844;28;20706;-77
2021/10/25 04:42:39;;;;;;;9.57;5.40;;;7.70;99.90;;;;;;4997702;28;20197;-76
2021/10/25 04:45:06;;;;;;;7.10;5.10;;;7.80;99.90;;;;;;4993063;28;20435;-76
2021/10/25 04:47:32;;;;;;;5.00;4.50;;;7.80;99.90;;;;;;4993000;28;20536;-76
2021/10/25 04:49:57;;;;;;;7.50;5.17;;;7.80;99.90;;;;;;4997737;28;20611;-77
2021/10/25 04:52:23;;;;;;;5.43;4.93;;;7.80;99.90;;;;;;4994319;28;20189;-77
2021/10/25 04:54:49;;;;;;;6.50;5.10;;;7.60;99.90;;;;;;4994132;28;20197;-77
2021/10/25 04:57:14;;;;;;;5.50;4.60;;;7.70;99.90;;;;;;4997352;28;20221;-77
2021/10/25 04:59:41;;;;;;;5.53;4.77;;;7.80;99.90;;;;;;4994732;28;20212;-76
2021/10/25 05:02:08;;;;;;;6.70;5.03;;;7.80;99.90;;;;;;4993897;28;20672;-76
2021/10/25 05:04:33;;;;;;;6.77;4.83;;;7.80;99.90;;;;;;4994723;28;20535;-76
2021/10/25 05:06:59;;;;;;;6.30;4.47;;;7.90;99.90;;;;;;4993339;28;20543;-77
2021/10/25 05:09:25;;;;;;;6.03;4.90;;;7.90;99.90;;;;;;4998742;28;20189;-76
2021/10/25 05:11:51;;;;;;;7.30;5.40;;;7.90;99.90;;;;;;4994333;28;20185;-76
2021/10/25 05:14:16;;;;;;;5.33;4.37;;;7.80;99.90;;;;;;4999829;28;20215;-77
2021/10/25 05:16:43;;;;;;;6.60;5.27;;;7.50;99.90;;;;;;4995167;28;20260;-76
2021/10/25 05:19:09;;;;;;;9.63;4.67;;;7.70;99.90;;;;;;4998167;28;20680;-77
2021/10/25 05:21:35;;;;;;;5.70;5.20;;;7.70;99.90;;;;;;4998709;28;20551;-77
2021/10/25 05:24:01;;;;;;;5.23;4.70;;;7.30;99.90;;;;;;4986505;28;21004;-75
2021/10/25 05:26:28;;;;;;;7.10;4.67;;;7.20;99.90;;;;;;5001213;28;20506;-75
2021/10/25 05:28:54;;;;;;;7.03;4.30;;;7.30;99.90;;;;;;4997321;28;20204;-76
2021/10/25 05:31:20;;;;;;;6.20;4.77;;;7.30;99.90;;;;;;4996842;28;20469;-76
2021/10/25 05:33:45;;;;;;;6.87;4.53;;;7.50;99.90;;;;;;4999180;28;20188;-77
2021/10/25 05:36:11;;;;;;;7.47;4.37;;;7.70;99.90;;;;;;4985881;28;20228;-77
2021/10/25 05:38:38;;;;;;;5.60;4.83;;;7.80;99.90;;;;;;5001920;28;20300;-76
2021/10/25 05:41:04;;;;;;;10.70;6.27;;;7.70;99.90;;;;;;4967488;28;20679;-76
2021/10/25 05:43:30;;;;;;;13.90;7.30;;;7.70;99.90;;;;;;4997112;28;20432;-75
2021/10/25 05:45:56;;;;;;;17.97;9.03;;;7.50;99.90;;;;;;4999929;28;20450;-76
2021/10/25 05:48:22;;;;;;;14.87;7.57;;;7.60;99.90;;;;;;4997949;28;20452;-76
2021/10/25 05:50:48;;;;;;;24.00;8.40;;;7.50;99.90;;;;;;4995680;28;20593;-76
2021/10/25 05:53:15;;;;;;;11.60;6.63;;;7.40;99.90;;;;;;4990966;28;20516;-77
2021/10/25 05:55:42;;;;;;;24.20;6.73;;;7.50;99.90;;;;;;5010181;28;21044;-76
2021/10/25 05:58:22;;;;;;;9.00;5.23;;;7.50;99.90;;;;;;5006387;28;20968;-76
2021/10/25 06:01:00;;;;;;;6.27;4.60;;;7.70;99.90;;;;;;4996373;28;20459;-76
2021/10/25 06:03:30;;;;;;;18.03;8.30;;;7.90;99.90;;;;;;5003014;28;20446;-77
2021/10/25 06:05:55;;;;;;;19.37;8.67;;;8.00;99.90;;;;;;4998718;28;20454;-76
2021/10/25 06:08:21;;;;;;;37.40;12.53;;;8.00;99.90;;;;;;5012578;28;20997;-76
2021/10/25 06:10:47;;;;;;;22.60;8.77;;;8.20;99.90;;;;;;5012185;28;20235;-76
2021/10/25 06:13:37;;;;;;;26.60;9.03;;;8.20;99.90;;;;;;5014702;28;20178;-76
2021/10/25 06:16:10;;;;;;;16.93;7.63;;;8.10;99.90;;;;;;5009290;28;20481;-76
2021/10/25 06:18:35;;;;;;;15.37;7.10;;;8.10;99.90;;;;;;5011522;28;20941;-76
2021/10/25 06:21:02;;;;;;;19.83;6.70;;;8.30;99.90;;;;;;5014599;28;20535;-77
2021/10/25 06:23:28;;;;;;;11.63;6.50;;;8.40;99.90;;;;;;4996437;28;20322;-75
2021/10/25 06:25:54;;;;;;;8.80;5.77;;;8.50;99.90;;;;;;5000055;28;20448;-76
2021/10/25 06:28:23;;;;;;;6.80;4.67;;;8.60;99.90;;;;;;4998453;28;20454;-76
2021/10/25 06:30:55;;;;;;;19.27;6.20;;;8.70;99.90;;;;;;4979805;28;20217;-75
2021/10/25 06:33:22;;;;;;;7.80;5.27;;;8.60;99.90;;;;;;4998170;28;20479;-76
2021/10/25 06:35:57;;;;;;;6.50;4.07;;;8.60;99.90;;;;;;4992618;28;20470;-76
2021/10/25 06:38:25;;;;;;;7.60;5.83;;;8.50;99.90;;;;;;4995472;28;20490;-76
2021/10/25 06:40:50;;;;;;;7.73;5.00;;;8.50;99.90;;;;;;4998620;28;20456;-76
2021/10/25 06:43:16;;;;;;;7.00;5.07;;;8.50;99.90;;;;;;4993818;28;20455;-76
2021/10/25 06:45:42;;;;;;;6.13;5.27;;;8.30;99.90;;;;;;4993992;28;20226;-76
2021/10/25 06:48:07;;;;;;;7.37;4.70;;;8.00;99.90;;;;;;4996117;28;20189;-77
2021/10/25 06:50:39;;;;;;;9.03;4.70;;;8.00;99.90;;;;;;4992428;28;20213;-76
2021/10/25 06:53:07;;;;;;;6.07;4.70;;;8.40;99.90;;;;;;4991559;28;20271;-75
2021/10/25 06:55:34;;;;;;;6.23;4.80;;;8.50;99.90;;;;;;4993811;28;20460;-76
2021/10/25 06:58:00;;;;;;;9.90;5.07;;;8.70;99.90;;;;;;4977384;28;20990;-75
2021/10/25 07:00:26;;;;;;;5.93;4.90;;;8.90;99.90;;;;;;4994417;28;20448;-76
2021/10/25 07:02:52;;;;;;;9.37;4.90;;;9.00;99.90;;;;;;4993358;28;20458;-77
2021/10/25 07:05:18;;;;;;;5.30;4.50;;;9.10;99.90;;;;;;4994640;28;20251;-76
2021/10/25 07:07:45;;;;;;;6.13;5.33;;;9.10;99.90;;;;;;4974706;28;20268;-76
2021/10/25 07:10:11;;;;;;;7.90;6.07;;;8.70;99.90;;;;;;4988275;28;20471;-76
2021/10/25 07:12:37;;;;;;;6.83;5.00;;;8.50;99.90;;;;;;4999091;28;20443;-75
2021/10/25 07:15:04;;;;;;;6.73;5.10;;;8.50;99.90;;;;;;4999160;28;20193;-76
2021/10/25 07:17:36;;;;;;;10.03;5.73;;;8.40;99.90;;;;;;4981762;28;20471;-76
2021/10/25 08:09:28;;;;;;;6.90;5.33;;;9.60;99.90;;;;;;4996116;28;20533;-76
2021/10/25 08:11:59;;;;;;;7.40;6.10;;;9.70;99.90;;;;;;4982292;28;20551;-76
2021/10/25 08:14:32;;;;;;;6.40;5.43;;;9.70;99.90;;;;;;4985034;28;20471;-76
2021/10/25 08:17:17;;;;;;;8.37;5.43;;;9.60;99.90;;;;;;4976957;28;20842;-77
2021/10/25 08:19:45;;;;;;;9.40;7.13;;;9.80;99.90;;;;;;4998376;28;20969;-76
2021/10/25 08:22:15;;;;;;;10.00;7.10;;;9.40;99.90;;;;;;4985312;28;20998;-76
2021/10/25 08:24:47;;;;;;;9.43;7.70;;;9.40;99.90;;;;;;4996228;28;20460;-76
2021/10/25 08:27:15;;;;;;;8.67;6.87;;;9.50;99.90;;;;;;4991006;28;20451;-77
2021/10/25 08:29:41;;;;;;;8.13;7.33;;;9.60;99.90;;;;;;4997519;28;20472;-77
2021/10/25 08:32:15;;;;;;;11.50;8.00;;;9.80;99.90;;;;;;4984005;28;20448;-77
2021/10/25 08:39:50;;;;;;;11.13;7.43;;;9.80;99.90;;;;;;4999426;28;20467;-77
2021/10/25 08:42:27;;;;;;;11.80;7.60;;;9.70;99.90;;;;;;5001024;28;20268;-77
2021/10/25 08:45:01;;;;;;;10.63;7.70;;;9.80;99.90;;;;;;4984250;28;20451;-77
2021/10/25 08:47:33;;;;;;;10.10;8.20;;;10.00;99.90;;;;;;4996399;28;20458;-77
2021/10/25 08:50:00;;;;;;;12.20;9.10;;;10.20;99.90;;;;;;5000500;28;20463;-77
2021/10/25 08:52:26;;;;;;;13.23;8.93;;;10.30;99.90;;;;;;4980663;28;20459;-77
2021/10/25 08:54:53;;;;;;;9.23;7.70;;;10.40;99.90;;;;;;4997850;28;20449;-77
2021/10/25 08:57:20;;;;;;;8.57;7.67;;;10.50;99.90;;;;;;4987253;28;20229;-75
2021/10/25 09:00:07;;;;;;;8.83;7.80;;;10.40;99.90;;;;;;4996269;28;20463;-76
2021/10/25 09:02:34;;;;;;;8.87;6.90;;;10.50;99.90;;;;;;4965603;28;20812;-77
2021/10/25 09:05:16;;;;;;;10.63;7.83;;;10.50;99.90;;;;;;5001016;28;20455;-77
2021/10/25 09:08:10;;;;;;;8.03;7.23;;;10.70;99.90;;;;;;4998118;28;20462;-76
2021/10/25 09:10:41;;;;;;;10.13;7.30;;;10.90;99.90;;;;;;4993647;28;20938;-77
2021/10/25 09:13:13;;;;;;;8.57;7.60;;;11.00;99.90;;;;;;4995843;28;20464;-77
2021/10/25 09:15:40;;;;;;;12.90;8.90;;;10.90;99.90;;;;;;4996412;28;20440;-76
2021/10/25 09:18:28;;;;;;;9.10;7.50;;;10.80;99.90;;;;;;4997318;28;20477;-76
2021/10/25 09:20:53;;;;;;;10.77;7.43;;;10.80;99.90;;;;;;4986557;28;20445;-75
2021/10/25 09:23:22;;;;;;;12.27;9.23;;;10.90;99.90;;;;;;4988031;28;20429;-76
2021/10/25 09:26:13;;;;;;;9.77;8.20;;;11.00;99.90;;;;;;4995709;28;20205;-76
2021/10/25 09:28:54;;;;;;;9.90;8.20;;;10.90;99.90;;;;;;4985900;28;20440;-77
2021/10/25 09:31:26;;;;;;;9.50;7.97;;;10.90;99.90;;;;;;4996767;28;20459;-77
2021/10/25 09:34:05;;;;;;;10.20;8.63;;;10.90;99.90;;;;;;4997390;28;20433;-77
2021/10/25 09:36:48;;;;;;;8.83;7.90;;;11.00;99.90;;;;;;4993871;28;20447;-76
2021/10/25 09:39:24;;;;;;;11.50;8.27;;;11.30;99.90;;;;;;4995471;28;20443;-77
2021/10/25 09:42:16;;;;;;;9.00;7.90;;;11.30;99.90;;;;;;4995829;28;20432;-77
2021/10/25 09:50:20;;;;;;;11.27;7.67;;;11.30;99.90;;;;;;4994581;28;20506;-77
2021/10/25 09:52:48;;;;;;;9.97;8.63;;;11.30;99.90;;;;;;4986487;28;20468;-76
2021/10/25 09:55:17;;;;;;;10.93;7.90;;;11.40;99.90;;;;;;4996889;28;20432;-76
2021/10/25 10:00:14;;;;;;;12.57;9.27;;;11.60;99.90;;;;;;4995766;28;20546;-76
2021/10/25 10:02:41;;;;;;;10.47;9.47;;;11.80;99.90;;;;;;4994437;28;20459;-77
2021/10/25 10:05:10;;;;;;;11.07;9.03;;;11.70;99.90;;;;;;4996608;28;20463;-75
2021/10/25 10:07:36;;;;;;;12.20;9.00;;;11.70;99.90;;;;;;4997548;28;20433;-76
2021/10/25 10:10:03;;;;;;;11.83;8.93;;;11.90;99.90;;;;;;4995538;28;20475;-75
2021/10/25 10:12:29;;;;;;;12.47;8.80;;;11.80;99.90;;;;;;4998525;28;21162;-76
2021/10/25 10:14:58;;;;;;;12.77;9.57;;;11.80;99.90;;;;;;4982689;28;20452;-76
2021/10/25 10:17:30;;;;;;;11.60;9.80;;;12.00;99.90;;;;;;4989854;28;20233;-76
2021/10/25 10:20:04;;;;;;;10.63;9.50;;;12.10;99.90;;;;;;4997480;28;20448;-77
2021/10/25 10:22:32;;;;;;;12.50;9.50;;;12.20;99.90;;;;;;4993293;28;20459;-77
2021/10/25 10:24:58;;;;;;;10.93;8.60;;;12.30;99.90;;;;;;4996563;28;20429;-76
2021/10/25 10:27:25;;;;;;;10.30;7.20;;;12.40;99.90;;;;;;4995549;28;20452;-77
2021/10/25 10:29:58;;;;;;;10.20;7.67;;;12.40;99.90;;;;;;4996031;28;20570;-77
2021/10/25 10:32:26;;;;;;;10.70;9.10;;;12.30;99.90;;;;;;4993774;28;20449;-77
2021/10/25 10:34:53;;;;;;;9.60;7.30;;;12.30;99.90;;;;;;4997162;28;20530;-77
2021/10/25 10:37:21;;;;;;;8.70;7.27;;;12.40;99.90;;;;;;4994691;28;20891;-75
2021/10/25 10:40:12;;;;;;;10.17;7.30;;;12.50;99.90;;;;;;4996907;28;20466;-75
2021/10/25 10:42:42;;;;;;;7.67;6.80;;;12.60;99.90;;;;;;5000328;28;20420;-77
2021/10/25 10:45:11;;;;;;;9.20;7.47;;;12.60;99.90;;;;;;4995053;28;21032;-76
2021/10/25 10:47:53;;;;;;;8.93;7.70;;;12.80;99.90;;;;;;4997477;28;20895;-76
2021/10/25 10:50:28;;;;;;;10.70;8.30;;;12.80;99.90;;;;;;4998389;28;20448;-76
2021/10/25 10:53:12;;;;;;;9.60;8.57;;;12.90;99.90;;;;;;4994358;28;20447;-75
2021/10/25 10:55:43;;;;;;;11.70;8.30;;;13.10;99.90;;;;;;4996820;28;20444;-77
2021/10/25 11:00:49;;;;;;;12.10;8.17;;;13.30;99.90;;;;;;4996166;28;20476;-76
2021/10/25 11:03:23;;;;;;;11.03;7.27;;;13.40;99.90;;;;;;5002563;28;20477;-76
2021/10/25 11:06:05;;;;;;;9.10;7.93;;;13.40;99.90;;;;;;4995771;28;20447;-76
2021/10/25 11:08:33;;;;;;;15.60;8.33;;;13.40;99.90;;;;;;4993740;28;20595;-77
2021/10/25 11:11:02;;;;;;;9.33;8.27;;;13.40;99.90;;;;;;4993453;28;20554;-76
2021/10/25 11:13:31;;;;;;;14.13;8.07;;;13.60;99.90;;;;;;4998650;28;20484;-76
2021/10/25 11:16:11;;;;;;;8.90;7.77;;;13.80;99.90;;;;;;4992570;28;20463;-76
2021/10/25 11:18:44;;;;;;;9.27;8.33;;;14.10;99.90;;;;;;4985120;28;20467;-76
2021/10/25 11:21:28;;;;;;;10.63;8.47;;;14.30;99.90;;;;;;4997768;28;20999;-76
2021/10/25 11:24:02;;;;;;;13.83;9.03;;;14.50;99.90;;;;;;4996175;28;20443;-76
2021/10/25 11:26:38;;;;;;;11.50;10.10;;;14.70;99.90;;;;;;4996030;28;20476;-76
2021/10/25 11:29:14;;;;;;;10.50;8.73;;;14.80;99.90;;;;;;4994503;28;20439;-77
2021/10/25 11:31:55;;;;;;;10.20;7.73;;;14.80;99.90;;;;;;4996506;28;20456;-76
2021/10/25 11:34:26;;;;;;;11.80;7.57;;;14.90;99.90;;;;;;5002309;28;20487;-76
2021/10/25 11:37:08;;;;;;;9.63;8.27;;;15.20;99.90;;;;;;4999390;28;20491;-76
2021/10/25 11:39:45;;;;;;;8.03;7.20;;;15.10;99.90;;;;;;4992399;28;20511;-77
2021/10/25 11:42:16;;;;;;;8.70;7.43;;;15.60;99.90;;;;;;4994879;28;21153;-76
2021/10/25 11:44:44;;;;;;;11.00;8.13;;;17.20;99.90;;;;;;4998015;28;20420;-77
2021/10/25 11:47:33;;;;;;;8.10;7.23;;;19.20;99.90;;;;;;4990804;28;20447;-77
2021/10/25 11:50:06;;;;;;;9.40;7.13;;;21.60;99.90;;;;;;4994472;28;21794;-77
2021/10/25 11:52:41;;;;;;;8.27;7.20;;;23.20;99.90;;;;;;4997800;28;20470;-76
2021/10/25 11:55:09;;;;;;;9.33;8.40;;;25.10;99.90;;;;;;4996339;28;20455;-76
2021/10/25 11:57:36;;;;;;;8.73;7.90;;;25.80;92.90;;;;;;5001914;28;20521;-77
2021/10/25 12:00:07;;;;;;;8.57;7.70;;;26.90;89.70;;;;;;4997781;28;20452;-77
2021/10/25 12:02:37;;;;;;;10.53;7.90;;;27.70;80.20;;;;;;4996222;28;20440;-77
2021/10/25 12:05:07;;;;;;;7.60;6.73;;;29.10;70.60;;;;;;4996900;28;20447;-77
2021/10/25 12:07:44;;;;;;;8.63;6.90;;;29.70;67.40;;;;;;4999100;28;20506;-77
2021/10/25 12:10:10;;;;;;;7.20;6.50;;;30.40;62.60;;;;;;4996181;28;20459;-77
2021/10/25 12:12:36;;;;;;;7.00;6.40;;;31.60;56.80;;;;;;4983380;28;20891;-76
2021/10/25 12:15:03;;;;;;;7.80;6.40;;;32.10;54.10;;;;;;4997896;28;20454;-76
2021/10/25 12:17:34;;;;;;;7.40;6.70;;;32.50;52.30;;;;;;4981441;28;20794;-76
2021/10/25 12:20:02;;;;;;;7.57;6.73;;;32.80;50.60;;;;;;5001595;28;20480;-76
2021/10/25 12:22:28;;;;;;;7.23;6.53;;;32.50;50.80;;;;;;4996140;28;20448;-76
2021/10/25 12:24:56;;;;;;;7.00;6.40;;;33.00;49.50;;;;;;4993273;28;20441;-76
2021/10/25 12:27:28;;;;;;;7.23;6.30;;;32.80;48.80;;;;;;4999066;28;20424;-76
2021/10/25 12:30:16;;;;;;;6.70;6.10;;;33.50;48.00;;;;;;4993385;28;20521;-77
2021/10/25 12:32:54;;;;;;;7.90;5.97;;;33.80;46.40;;;;;;4997539;28;20457;-77
2021/10/25 12:35:39;;;;;;;8.30;6.00;;;33.90;46.10;;;;;;5000224;28;20866;-77
2021/10/25 12:38:11;;;;;;;6.93;5.67;;;34.00;45.30;;;;;;5000597;28;20471;-79
2021/10/25 12:40:41;;;;;;;6.60;6.00;;;34.60;45.00;;;;;;5001134;28;21206;-79
2021/10/25 12:43:07;;;;;;;6.20;5.70;;;34.50;44.10;;;;;;4996042;28;20436;-76
2021/10/25 12:45:43;;;;;;;6.40;5.90;;;34.60;43.60;;;;;;4996985;28;20939;-77
2021/10/25 12:48:14;;;;;;;6.60;6.10;;;34.50;42.90;;;;;;4996909;28;20426;-77
2021/10/25 12:50:42;;;;;;;5.87;5.37;;;33.90;42.80;;;;;;4994610;28;20811;-77
2021/10/25 12:53:13;;;;;;;6.30;5.47;;;34.20;41.50;;;;;;4997213;28;20524;-76
2021/10/25 12:55:42;;;;;;;4.70;4.30;;;34.60;41.10;;;;;;4993756;28;20448;-77
2021/10/25 12:58:10;;;;;;;5.47;4.97;;;34.20;41.50;;;;;;5000312;28;20611;-76
2021/10/25 13:00:38;;;;;;;5.83;5.10;;;33.80;41.20;;;;;;4995140;28;20464;-76
2021/10/25 13:03:11;;;;;;;5.67;5.27;;;33.20;41.60;;;;;;5000993;28;20440;-75
2021/10/25 13:05:40;;;;;;;9.17;5.67;;;32.60;42.10;;;;;;4997263;28;20471;-76
2021/10/25 13:08:08;;;;;;;5.77;5.27;;;32.00;42.10;;;;;;4996699;28;20468;-76
2021/10/25 13:10:37;;;;;;;6.40;5.80;;;31.10;42.80;;;;;;4998684;28;20838;-77
2021/10/25 13:13:05;;;;;;;7.03;5.40;;;30.50;44.10;;;;;;4995799;28;20444;-77
2021/10/25 13:15:31;;;;;;;5.60;5.00;;;31.10;44.10;;;;;;4991697;28;20444;-77
2021/10/25 13:17:59;;;;;;;6.20;4.90;;;31.20;44.30;;;;;;4996045;28;20465;-77
2021/10/25 13:20:28;;;;;;;6.20;4.50;;;30.50;44.00;;;;;;4996449;28;20460;-77
2021/10/25 13:22:56;;;;;;;5.37;4.87;;;30.80;45.20;;;;;;4989702;28;20822;-76
2021/10/25 13:25:23;;;;;;;5.87;4.60;;;30.70;45.40;;;;;;4990999;28;20498;-75
2021/10/25 13:27:50;;;;;;;5.13;4.70;;;30.60;44.10;;;;;;4993908;28;20546;-77
2021/10/25 13:30:19;;;;;;;5.17;4.67;;;30.40;44.90;;;;;;4988872;28;20997;-76
2021/10/25 13:32:46;;;;;;;5.97;5.10;;;30.00;45.80;;;;;;4998461;28;20447;-79
2021/10/25 13:35:13;;;;;;;8.00;5.23;;;29.80;45.40;;;;;;4996570;28;20475;-77
2021/10/25 13:37:39;;;;;;;5.40;4.90;;;29.70;45.50;;;;;;4997269;28;20540;-77
2021/10/25 13:40:06;;;;;;;5.37;4.60;;;29.40;45.60;;;;;;4999168;28;20460;-77
2021/10/25 13:42:33;;;;;;;5.97;5.37;;;29.10;45.90;;;;;;4995778;28;20223;-78
2021/10/25 13:44:59;;;;;;;10.30;5.67;;;28.70;46.20;;;;;;5000204;28;20505;-77
2021/10/25 13:47:26;;;;;;;5.40;4.77;;;27.90;46.70;;;;;;4996109;28;21231;-77
2021/10/25 13:49:52;;;;;;;5.17;4.67;;;27.40;47.30;;;;;;4999769;28;20304;-77
2021/10/25 13:52:18;;;;;;;4.97;4.47;;;26.80;48.20;;;;;;4996028;28;20456;-77
2021/10/25 13:54:44;;;;;;;10.20;5.27;;;26.20;49.30;;;;;;4995159;28;20452;-76
2021/10/25 13:57:10;;;;;;;6.33;4.97;;;25.60;49.70;;;;;;4996249;28;20223;-76
2021/10/25 13:59:37;;;;;;;6.40;4.47;;;24.80;51.60;;;;;;4995237;28;20640;-77
2021/10/25 14:02:07;;;;;;;7.07;5.20;;;24.40;52.40;;;;;;4999855;28;20444;-76
2021/10/25 14:04:38;;;;;;;5.10;4.60;;;23.80;52.90;;;;;;4987318;28;20844;-77
2021/10/25 14:07:05;;;;;;;5.57;5.07;;;23.50;53.80;;;;;;4996111;28;20433;-76
2021/10/25 14:09:32;;;;;;;5.83;4.73;;;23.00;55.40;;;;;;4999281;28;20520;-76
2021/10/25 14:11:59;;;;;;;4.80;4.00;;;22.30;56.40;;;;;;5000309;28;20543;-77
2021/10/25 14:14:26;;;;;;;5.50;4.60;;;22.10;55.60;;;;;;5002856;28;20514;-76
2021/10/25 14:16:52;;;;;;;5.17;4.40;;;21.90;56.60;;;;;;5014071;28;20442;-77
2021/10/25 14:19:20;;;;;;;5.23;4.50;;;21.30;58.00;;;;;;5014618;28;20464;-77
2021/10/25 14:21:52;;;;;;;5.20;4.40;;;21.00;58.10;;;;;;5022091;28;20197;-76
2021/10/25 14:24:19;;;;;;;4.43;3.97;;;20.50;58.60;;;;;;5018707;28;20491;-77
2021/10/25 14:26:46;;;;;;;8.30;4.93;;;20.60;59.30;;;;;;5023544;28;20434;-76
2021/10/25 14:29:12;;;;;;;5.40;4.37;;;20.50;62.00;;;;;;5019690;28;20454;-77
2021/10/25 14:31:41;;;;;;;6.40;5.27;;;20.20;59.80;;;;;;5017635;28;20468;-77
2021/10/25 14:34:08;;;;;;;6.00;4.47;;;19.90;63.50;;;;;;5007911;28;20429;-77
2021/10/25 14:36:33;;;;;;;5.50;4.67;;;19.90;62.00;;;;;;4999651;28;20444;-76
2021/10/25 14:41:54;;;;;;;6.00;5.00;;;19.50;62.40;;;;;;5001674;28;20201;-76
2021/10/25 14:55:24;;;;;;;4.77;4.20;;;18.90;68.40;;;;;;4982759;28;20424;-76